TimePDT,TemperatureF,Dew PointF,Humidity,Sea Level PressureIn,VisibilityMPH,Wind Direction,Wind SpeedMPH,Gust SpeedMPH,PrecipitationIn,Events,Conditions,WindDirDegrees,DateUTC
12:15 AM,46.4,41.0,81,30.01,9.0,West,6.9,-,N/A,,Clear,280,2013-05-24 07:15:00
12:35 AM,46.4,41.0,81,30.01,10.0,WNW,8.1,-,N/A,,Clear,290,2013-05-24 07:35:00
12:55 AM,46.4,41.0,81,30.01,10.0,WNW,6.9,-,N/A,,Clear,300,2013-05-24 07:55:00
1:15 AM,46.4,41.0,81,30.00,9.0,WNW,5.8,-,N/A,,Partly Cloudy,290,2013-05-24 08:15:00
1:35 AM,46.4,41.0,81,30.00,10.0,WNW,9.2,-,N/A,,Partly Cloudy,290,2013-05-24 08:35:00
1:45 AM,46.4,41.0,81,30.00,10.0,West,8.1,-,N/A,,Partly Cloudy,280,2013-05-24 08:45:00
8:15 AM,53.6,42.8,67,30.01,9.0,WNW,5.8,-,N/A,,Unknown,290,2013-05-24 15:15:00
8:35 AM,53.6,41.0,62,30.01,10.0,WSW,5.8,-,N/A,,Clear,250,2013-05-24 15:35:00
8:55 AM,55.4,42.8,63,30.02,10.0,WNW,5.8,-,N/A,,Clear,300,2013-05-24 15:55:00
9:15 AM,57.2,41.0,55,30.02,10.0,WNW,5.8,-,N/A,,Clear,290,2013-05-24 16:15:00
9:35 AM,57.2,41.0,55,30.02,10.0,West,5.8,-,N/A,,Clear,280,2013-05-24 16:35:00
9:55 AM,57.2,41.0,55,30.02,10.0,West,6.9,-,N/A,,Clear,280,2013-05-24 16:55:00
10:15 AM,59.0,41.0,51,30.01,10.0,SW,6.9,-,N/A,,Clear,230,2013-05-24 17:15:00
10:35 AM,59.0,41.0,51,30.01,9.0,West,5.8,-,N/A,,Clear,270,2013-05-24 17:35:00
10:55 AM,62.6,41.0,45,30.01,10.0,West,6.9,-,N/A,,Clear,270,2013-05-24 17:55:00
11:15 AM,62.6,41.0,45,30.01,10.0,NW,3.5,-,N/A,,Clear,310,2013-05-24 18:15:00
11:35 AM,64.4,41.0,42,30.01,10.0,NNW,4.6,-,N/A,,Clear,340,2013-05-24 18:35:00
11:55 AM,64.4,39.2,40,30.01,10.0,NNW,4.6,-,N/A,,Clear,330,2013-05-24 18:55:00
12:15 PM,66.2,41.0,40,30.00,10.0,WNW,6.9,-,N/A,,Clear,290,2013-05-24 19:15:00
12:35 PM,68.0,42.8,40,30.00,10.0,West,8.1,-,N/A,,Clear,260,2013-05-24 19:35:00
12:55 PM,68.0,44.6,43,29.99,10.0,WNW,4.6,-,N/A,,Clear,300,2013-05-24 19:55:00
1:15 PM,68.0,41.0,37,29.99,10.0,WNW,5.8,-,N/A,,Clear,290,2013-05-24 20:15:00
1:35 PM,69.8,42.8,38,29.99,10.0,WNW,8.1,-,N/A,,Clear,290,2013-05-24 20:35:00
1:55 PM,69.8,42.8,38,29.99,10.0,WNW,12.7,19.6,N/A,,Clear,290,2013-05-24 20:55:00
2:15 PM,68.0,42.8,40,29.99,10.0,West,12.7,17.3,N/A,,Clear,260,2013-05-24 21:15:00
2:35 PM,68.0,44.6,43,29.99,10.0,West,11.5,17.3,N/A,,Clear,260,2013-05-24 21:35:00
2:55 PM,68.0,41.0,37,29.99,10.0,West,11.5,-,N/A,,Clear,270,2013-05-24 21:55:00
3:15 PM,68.0,44.6,43,29.98,10.0,West,12.7,18.4,N/A,,Clear,280,2013-05-24 22:15:00
3:35 PM,68.0,44.6,43,29.99,10.0,WSW,13.8,19.6,N/A,,Clear,250,2013-05-24 22:35:00
3:55 PM,68.0,44.6,43,29.98,10.0,WSW,13.8,17.3,N/A,,Clear,240,2013-05-24 22:55:00
4:15 PM,66.2,44.6,46,29.98,10.0,WSW,11.5,16.1,N/A,,Clear,240,2013-05-24 23:15:00
4:35 PM,66.2,42.8,43,29.98,10.0,WSW,13.8,17.3,N/A,,Clear,250,2013-05-24 23:35:00
4:55 PM,64.4,42.8,45,29.97,10.0,West,13.8,-,N/A,,Clear,270,2013-05-24 23:55:00
5:15 PM,64.4,42.8,45,29.97,10.0,WSW,10.4,-,N/A,,Clear,250,2013-05-25 00:15:00
5:35 PM,62.6,42.8,48,29.97,10.0,West,12.7,17.3,N/A,,Clear,280,2013-05-25 00:35:00
5:55 PM,60.8,41.0,48,29.97,10.0,West,12.7,18.4,N/A,,Clear,280,2013-05-25 00:55:00
6:15 PM,59.0,42.8,55,29.96,10.0,WNW,9.2,17.3,N/A,,Clear,290,2013-05-25 01:15:00
6:35 PM,59.0,42.8,55,29.96,10.0,West,10.4,-,N/A,,Clear,270,2013-05-25 01:35:00
7:15 PM,57.2,41.0,55,29.95,9.0,West,10.4,-,N/A,,Unknown,260,2013-05-25 02:15:00
7:35 PM,55.4,41.0,58,29.96,10.0,West,9.2,-,N/A,,Clear,260,2013-05-25 02:35:00
7:55 PM,53.6,41.0,62,29.96,8.0,West,10.4,-,N/A,,Clear,270,2013-05-25 02:55:00
8:15 PM,53.6,41.0,62,29.96,8.0,West,5.8,-,N/A,,Clear,280,2013-05-25 03:15:00
8:35 PM,51.8,41.0,67,29.96,8.0,WSW,5.8,-,N/A,,Scattered Clouds,250,2013-05-25 03:35:00
8:55 PM,50.0,41.0,71,29.96,10.0,West,4.6,-,N/A,,Mostly Cloudy,280,2013-05-25 03:55:00
9:15 PM,50.0,42.8,76,29.96,10.0,NW,3.5,-,N/A,,Overcast,310,2013-05-25 04:15:00
9:35 PM,48.2,42.8,82,29.97,10.0,NNW,3.5,-,N/A,,Overcast,330,2013-05-25 04:35:00
9:55 PM,48.2,41.0,76,29.97,9.0,NW,3.5,-,N/A,,Overcast,320,2013-05-25 04:55:00
10:15 PM,46.4,41.0,81,29.98,10.0,NNW,3.5,-,N/A,,Overcast,330,2013-05-25 05:15:00
10:35 PM,46.4,42.8,87,29.98,9.0,NW,3.5,-,N/A,,Overcast,320,2013-05-25 05:35:00
10:55 PM,46.4,42.8,87,29.98,8.0,NW,3.5,-,N/A,,Overcast,320,2013-05-25 05:55:00
11:15 PM,46.4,42.8,87,29.98,4.0,NNW,3.5,-,N/A,,Mostly Cloudy,340,2013-05-25 06:15:00
11:35 PM,44.6,41.0,87,29.98,4.0,North,3.5,-,N/A,,Mostly Cloudy,350,2013-05-25 06:35:00
11:55 PM,44.6,41.0,87,29.98,9.0,NNW,3.5,-,N/A,,Overcast,330,2013-05-25 06:55:00